• Join FlightAware (Why Join?)
  • Login
  • US Flag 
10:32PM EST


 

Airport Tracker/Info


-or-


 

Live Flight TrackerFlight Track Log ✈ SWA2383 ✈ 05-Jul-2013 ✈ KHOU - KSTL

Flight Track Log - Related Links

Times and Time Zones

All times are in EDT time to prevent confusion due to time zone crossing. See the SWA2383 flight status page for this flight to view local times or setup timezone preferences in your user account.

Time Position Orientation Groundspeed Altitude Reporting Facility
EDT Latitude Longitude Course Direction KTS MPH feet Rate Location/Type
09:35PM 29.6331 -95.2631 14° North 139 160 1,200  Level Houston Center
09:36PM 29.6544 -95.2464 34° Northeast 242 278 1,900 2,100 Climbing Houston Center
09:37PM 29.7194 -95.2581 351° North 228 262 4,600 2,940 Climbing Houston Center
09:38PM 29.7964 -95.2694 353° North 270 311 7,900 3,120 Climbing Houston Center
09:39PM 29.8764 -95.2494 12° North 288 331 10,900 3,000 Climbing Houston Center
09:40PM 29.9686 -95.2272 12° North 333 383 14,000 3,300 Climbing Houston Center
09:41PM 30.3072 -95.2003 14° North  Level FlightAware Approximate
09:41PM 30.0669 -95.2033 12° North 358 412 17,700  Level Houston Center
09:42PM 30.1672 -95.1783 12° North 367 422 20,500 2,580 Climbing Houston Center
09:43PM 30.2756 -95.1525 12° North 395 455 23,000 2,640 Climbing Houston Center
09:44PM 30.3892 -95.1236 12° North 414 476 25,900 2,580 Climbing Houston Center
09:45PM 30.5156 -95.0928 12° North 416 479 28,300 1,920 Climbing Houston Center
09:46PM 30.6322 -95.0492 18° North 443 510 29,900 1,500 Climbing Houston Center
09:47PM 30.7481 -94.9758 29° Northeast 470 541 31,400 2,100 Climbing Houston Center
09:48PM 30.8650 -94.9036 28° Northeast 475 547 34,200 2,400 Climbing Houston Center
09:49PM 30.9764 -94.8339 28° Northeast 459 528 36,300 1,740 Climbing Houston Center
09:50PM 31.0872 -94.7642 28° Northeast 450 518 37,800 1,260 Climbing Houston Center
09:51PM 31.1983 -94.6939 28° Northeast 465 535 38,900 780 Climbing Houston Center
09:52PM 31.3069 -94.6158 32° Northeast 469 540 39,500 1,020 Climbing Houston Center
09:53PM 31.4358 -94.5281 30° Northeast 454 522 41,000 720 Climbing Houston Center
09:54PM 31.5428 -94.4531 31° Northeast 451 519 41,000  Level Houston Center
09:55PM 31.6503 -94.3758 31° Northeast 452 520 41,000  Level Houston Center
09:56PM 31.7581 -94.2978 32° Northeast 454 522 41,000  Level Houston Center
09:57PM 31.8658 -94.2197 32° Northeast 454 522 41,000  Level Houston Center
09:58PM 31.9297 -94.1750 31° Northeast 448 516 41,000  Level Fort Worth Center
09:59PM 32.0381 -94.0953 32° Northeast 448 516 41,000  Level Fort Worth Center
10:00PM 32.1447 -94.0178 32° Northeast 443 510 41,000  Level Fort Worth Center
10:01PM 32.2569 -93.9300 33° Northeast 443 510 41,000  Level Fort Worth Center
10:02PM 32.3633 -93.8497 33° Northeast 443 510 41,000  Level Fort Worth Center
10:03PM 32.4678 -93.7742 31° Northeast 443 510 41,000  Level Fort Worth Center
10:04PM 32.5739 -93.6936 33° Northeast 443 510 41,000  Level Fort Worth Center
10:05PM 32.6800 -93.6175 31° Northeast 443 510 41,000  Level Fort Worth Center
10:06PM 32.7883 -93.5389 31° Northeast 443 510 41,000  Level Fort Worth Center
10:07PM 32.8922 -93.4600 33° Northeast 443 510 41,000  Level Fort Worth Center
10:08PM 33.0006 -93.3811 31° Northeast 443 510 41,000  Level Fort Worth Center
10:09PM 33.1086 -93.3017 32° Northeast 443 510 41,000  Level Fort Worth Center
10:11PM 33.3661 -93.1106 32° Northeast 458 527 41,000  Level Memphis Center
10:12PM 33.4722 -93.0294 33° Northeast 458 527 41,000  Level Memphis Center
10:13PM 33.5825 -92.9481 32° Northeast 458 527 41,000  Level Memphis Center
10:14PM 33.6906 -92.8636 33° Northeast 458 527 41,000  Level Memphis Center
10:15PM 33.7986 -92.7819 32° Northeast 463 533 41,000  Level Memphis Center
10:16PM 33.9131 -92.6975 31° Northeast 463 533 41,000  Level Memphis Center
10:17PM 34.0208 -92.6153 32° Northeast 463 533 41,000  Level Memphis Center
10:18PM 34.1269 -92.5250 35° Northeast 458 527 41,000  Level Memphis Center
10:19PM 34.2367 -92.4425 32° Northeast 458 527 41,000  Level Memphis Center
10:20PM 34.3467 -92.3594 32° Northeast 464 534 41,000  Level Memphis Center
10:21PM 34.4586 -92.2689 34° Northeast 464 534 41,000  Level Memphis Center
10:22PM 34.5664 -92.1831 33° Northeast 464 534 41,000  Level Memphis Center
10:23PM 34.6781 -92.0972 32° Northeast 464 534 41,000  Level Memphis Center
10:24PM 34.7878 -92.0108 33° Northeast 464 534 41,000  Level Memphis Center
10:25PM 34.8975 -91.9244 33° Northeast 464 534 41,000  Level Memphis Center
10:26PM 35.0133 -91.8353 32° Northeast 470 541 41,000  Level Memphis Center
10:27PM 35.1228 -91.7483 33° Northeast 470 541 41,000  Level Memphis Center
10:28PM 35.2322 -91.6611 33° Northeast 470 541 41,000  Level Memphis Center
10:29PM 35.3436 -91.5739 33° Northeast 465 535 41,000  Level Memphis Center
10:30PM 35.4569 -91.4836 33° Northeast 465 535 41,000  Level Memphis Center
10:31PM 35.5811 -91.3858 33° Northeast 471 542 41,000  Level Memphis Center
10:32PM 35.6817 -91.3053 33° Northeast 476 548 41,000  Level Memphis Center
10:33PM 35.7950 -91.2092 35° Northeast 471 542 41,000  Level Memphis Center
10:34PM 35.9164 -91.1517 21° North 461 531 41,000  Level Memphis Center
10:35PM 36.0439 -91.0964 19° North 466 536 41,000  Level Memphis Center
10:36PM 36.1672 -91.0358 22° Northeast 471 542 41,000  Level Memphis Center
10:37PM 36.2906 -90.9775 21° North 471 542 41,000 -300 Level Memphis Center
10:38PM 36.4139 -90.9192 21° North 471 542 40,500 -780 Descending Memphis Center
10:39PM 36.5369 -90.8581 22° Northeast 471 542 39,500 -1,020 Descending Memphis Center
10:40PM 36.6664 -90.7967 21° North 476 548 38,500 -1,260 Descending Memphis Center
10:41PM 36.8000 -90.7325 21° North 493 567 37,000 -960 Descending Memphis Center
10:43PM 36.9919 -90.6350 22° Northeast 520 598 36,300 -840 Descending Kansas City Center
10:44PM 37.1394 -90.5622 21° North 547 629 35,000 -660 Descending Kansas City Center
10:45PM 37.2808 -90.4933 21° North 546 628 35,000 -660 Level Kansas City Center
10:46PM 37.4053 -90.4306 22° Northeast 545 627 33,700 -2,040 Descending Kansas City Center
10:47PM 37.5469 -90.3594 22° Northeast 548 631 31,000 -2,580 Descending Kansas City Center
10:48PM 37.6800 -90.2922 22° Northeast 527 606 28,600 -3,360 Descending Kansas City Center
10:49PM 37.8331 -90.2139 22° Northeast 502 578 24,200 -4,020 Descending Kansas City Center
10:50PM 37.9564 -90.1564 20° North 479 551 20,600 -3,600 Descending Kansas City Center
10:51PM 38.0714 -90.0992 21° North 450 518 17,000 -2,520 Descending Kansas City Center
10:52PM 38.1769 -90.1194 351° North 398 458 15,500 -1,200 Descending Kansas City Center
10:53PM 38.2678 -90.1800 332° Northwest 372 428 14,600 -1,080 Descending Kansas City Center
10:54PM 38.3553 -90.2386 332° Northwest 360 414 13,400 -1,560 Descending Kansas City Center
10:55PM 38.4342 -90.2894 333° Northwest 352 405 11,500 -1,620 Descending Kansas City Center
10:56PM 38.5153 -90.3444 332° Northwest 338 389 10,200 -1,260 Descending Kansas City Center
10:57PM 38.5906 -90.3964 332° Northwest 294 338 9,000 -1,380 Descending Kansas City Center
10:58PM 38.6611 -90.4436 332° Northwest 282 325 7,500 -1,920 Descending Kansas City Center
10:59PM 38.7206 -90.4839 332° Northwest 242 278 5,200 -2,220 Descending Kansas City Center
11:00PM 38.7769 -90.5142 337° Northwest 234 269 3,100 -1,500 Descending Kansas City Center
11:01PM 38.7967 -90.4664 62° Northeast 190 219 2,200 -780 Descending Kansas City Center
11:02PM 38.7789 -90.4297 122° Southeast 142 163 1,600 -660 Descending Kansas City Center
11:03PM 38.7611 -90.3939 122° Southeast 126 145 900 -540 Descending Kansas City Center
11:04PM 38.7444 -90.3597 122° Southeast 124 143 600 -300 Descending Kansas City Center